sensor_id;sensor_type;location;lat;lon;timestamp;pressure;altitude;pressure_sealevel;temperature;humidity
27334;BME280;14817;57.104;-2.094;2023-05-22T00:01:20;101282.59;;;10.33;100.00
27334;BME280;14817;57.104;-2.094;2023-05-22T00:03:48;101277.38;;;10.31;100.00
27334;BME280;14817;57.104;-2.094;2023-05-22T00:06:16;101278.31;;;10.30;100.00
27334;BME280;14817;57.104;-2.094;2023-05-22T00:08:43;101273.69;;;10.32;100.00
27334;BME280;14817;57.104;-2.094;2023-05-22T00:11:10;101275.13;;;10.36;100.00
27334;BME280;14817;57.104;-2.094;2023-05-22T00:13:37;101271.59;;;10.36;100.00
27334;BME280;14817;57.104;-2.094;2023-05-22T00:16:04;101272.72;;;10.33;100.00
27334;BME280;14817;57.104;-2.094;2023-05-22T00:18:31;101277.56;;;10.28;100.00
27334;BME280;14817;57.104;-2.094;2023-05-22T00:20:58;101274.81;;;10.30;100.00
27334;BME280;14817;57.104;-2.094;2023-05-22T00:23:25;101276.97;;;10.36;100.00
27334;BME280;14817;57.104;-2.094;2023-05-22T00:25:53;101277.25;;;10.21;100.00
27334;BME280;14817;57.104;-2.094;2023-05-22T00:28:20;101275.28;;;10.23;100.00
27334;BME280;14817;57.104;-2.094;2023-05-22T00:30:47;101268.50;;;10.31;100.00
27334;BME280;14817;57.104;-2.094;2023-05-22T00:33:14;101273.28;;;10.37;100.00
27334;BME280;14817;57.104;-2.094;2023-05-22T00:35:41;101273.47;;;10.24;100.00
27334;BME280;14817;57.104;-2.094;2023-05-22T00:38:08;101269.06;;;10.34;100.00
27334;BME280;14817;57.104;-2.094;2023-05-22T00:40:35;101265.72;;;10.42;100.00
27334;BME280;14817;57.104;-2.094;2023-05-22T00:43:02;101258.53;;;10.42;100.00
27334;BME280;14817;57.104;-2.094;2023-05-22T00:45:34;101261.94;;;10.45;100.00
27334;BME280;14817;57.104;-2.094;2023-05-22T00:48:01;101256.38;;;10.36;100.00
27334;BME280;14817;57.104;-2.094;2023-05-22T00:50:28;101254.34;;;10.50;100.00
27334;BME280;14817;57.104;-2.094;2023-05-22T00:52:54;101252.53;;;10.50;100.00
27334;BME280;14817;57.104;-2.094;2023-05-22T00:55:21;101251.69;;;10.50;100.00
27334;BME280;14817;57.104;-2.094;2023-05-22T00:57:49;101246.34;;;10.59;100.00
27334;BME280;14817;57.104;-2.094;2023-05-22T01:00:16;101242.13;;;10.67;100.00
27334;BME280;14817;57.104;-2.094;2023-05-22T01:02:44;101234.44;;;10.73;100.00
27334;BME280;14817;57.104;-2.094;2023-05-22T01:05:11;101223.72;;;10.73;100.00
27334;BME280;14817;57.104;-2.094;2023-05-22T01:07:39;101219.06;;;10.75;100.00
27334;BME280;14817;57.104;-2.094;2023-05-22T01:10:06;101214.97;;;10.81;100.00
27334;BME280;14817;57.104;-2.094;2023-05-22T01:15:51;101209.75;;;10.79;100.00
27334;BME280;14817;57.104;-2.094;2023-05-22T01:21:20;101201.81;;;10.68;100.00
27334;BME280;14817;57.104;-2.094;2023-05-22T01:24:27;101199.03;;;10.79;100.00
27334;BME280;14817;57.104;-2.094;2023-05-22T01:27:33;101199.59;;;10.83;100.00
27334;BME280;14817;57.104;-2.094;2023-05-22T01:32:45;101191.88;;;10.80;100.00
27334;BME280;14817;57.104;-2.094;2023-05-22T01:35:15;101190.56;;;10.74;100.00
27334;BME280;14817;57.104;-2.094;2023-05-22T01:37:44;101193.19;;;10.65;100.00
27334;BME280;14817;57.104;-2.094;2023-05-22T01:40:11;101187.00;;;10.64;100.00
27334;BME280;14817;57.104;-2.094;2023-05-22T01:42:39;101181.09;;;10.60;100.00
27334;BME280;14817;57.104;-2.094;2023-05-22T01:45:09;101178.97;;;10.64;100.00
27334;BME280;14817;57.104;-2.094;2023-05-22T01:47:37;101177.72;;;10.58;100.00
27334;BME280;14817;57.104;-2.094;2023-05-22T01:50:05;101168.81;;;10.58;100.00
27334;BME280;14817;57.104;-2.094;2023-05-22T01:53:11;101167.00;;;10.58;100.00
27334;BME280;14817;57.104;-2.094;2023-05-22T01:55:57;101170.50;;;10.59;100.00
27334;BME280;14817;57.104;-2.094;2023-05-22T01:59:05;101161.75;;;10.57;100.00
27334;BME280;14817;57.104;-2.094;2023-05-22T02:01:36;101162.44;;;10.49;100.00
27334;BME280;14817;57.104;-2.094;2023-05-22T02:04:04;101167.38;;;10.54;100.00
27334;BME280;14817;57.104;-2.094;2023-05-22T02:06:32;101170.50;;;10.59;100.00
27334;BME280;14817;57.104;-2.094;2023-05-22T02:09:01;101168.81;;;10.58;100.00
27334;BME280;14817;57.104;-2.094;2023-05-22T02:11:30;101167.84;;;10.59;100.00
27334;BME280;14817;57.104;-2.094;2023-05-22T02:13:58;101161.06;;;10.65;100.00
27334;BME280;14817;57.104;-2.094;2023-05-22T02:16:28;101165.44;;;10.66;100.00
27334;BME280;14817;57.104;-2.094;2023-05-22T02:18:59;101159.81;;;10.69;100.00
27334;BME280;14817;57.104;-2.094;2023-05-22T02:21:33;101159.41;;;10.73;100.00
27334;BME280;14817;57.104;-2.094;2023-05-22T02:24:00;101167.16;;;10.76;100.00
27334;BME280;14817;57.104;-2.094;2023-05-22T02:26:28;101149.13;;;10.78;100.00
27334;BME280;14817;57.104;-2.094;2023-05-22T02:28:58;101157.28;;;10.77;100.00
27334;BME280;14817;57.104;-2.094;2023-05-22T02:31:25;101150.81;;;10.79;100.00
27334;BME280;14817;57.104;-2.094;2023-05-22T02:33:52;101150.25;;;10.86;100.00
27334;BME280;14817;57.104;-2.094;2023-05-22T02:36:19;101149.69;;;10.82;100.00
27334;BME280;14817;57.104;-2.094;2023-05-22T02:38:46;101142.34;;;10.74;100.00
27334;BME280;14817;57.104;-2.094;2023-05-22T02:41:13;101140.94;;;10.70;100.00
27334;BME280;14817;57.104;-2.094;2023-05-22T02:43:40;101140.06;;;10.60;100.00
27334;BME280;14817;57.104;-2.094;2023-05-22T02:46:07;101137.78;;;10.55;100.00
27334;BME280;14817;57.104;-2.094;2023-05-22T02:48:34;101139.63;;;10.55;100.00
27334;BME280;14817;57.104;-2.094;2023-05-22T02:51:00;101138.91;;;10.53;100.00
27334;BME280;14817;57.104;-2.094;2023-05-22T02:53:27;101139.19;;;10.50;100.00
27334;BME280;14817;57.104;-2.094;2023-05-22T02:55:54;101141.31;;;10.56;100.00
27334;BME280;14817;57.104;-2.094;2023-05-22T02:58:24;101143.28;;;10.54;100.00
27334;BME280;14817;57.104;-2.094;2023-05-22T03:00:51;101135.53;;;10.51;100.00
27334;BME280;14817;57.104;-2.094;2023-05-22T03:03:21;101134.69;;;10.50;100.00
27334;BME280;14817;57.104;-2.094;2023-05-22T03:05:50;101140.88;;;10.51;100.00
27334;BME280;14817;57.104;-2.094;2023-05-22T03:08:19;101130.59;;;10.46;100.00
27334;BME280;14817;57.104;-2.094;2023-05-22T03:10:47;101121.13;;;10.42;100.00
27334;BME280;14817;57.104;-2.094;2023-05-22T03:13:13;101129.00;;;10.34;100.00
27334;BME280;14817;57.104;-2.094;2023-05-22T03:15:40;101131.59;;;10.24;100.00
27334;BME280;14817;57.104;-2.094;2023-05-22T03:18:12;101122.28;;;10.18;100.00
27334;BME280;14817;57.104;-2.094;2023-05-22T03:20:39;101130.19;;;10.20;100.00
27334;BME280;14817;57.104;-2.094;2023-05-22T03:23:07;101129.41;;;10.29;100.00
27334;BME280;14817;57.104;-2.094;2023-05-22T03:25:34;101129.59;;;10.16;100.00
27334;BME280;14817;57.104;-2.094;2023-05-22T03:28:01;101130.63;;;10.25;100.00
27334;BME280;14817;57.104;-2.094;2023-05-22T03:30:32;101133.25;;;10.15;100.00
27334;BME280;14817;57.104;-2.094;2023-05-22T03:33:12;101127.94;;;10.25;100.00
27334;BME280;14817;57.104;-2.094;2023-05-22T03:35:39;101139.13;;;10.30;100.00
27334;BME280;14817;57.104;-2.094;2023-05-22T03:38:06;101138.06;;;10.21;100.00
27334;BME280;14817;57.104;-2.094;2023-05-22T03:40:33;101134.00;;;10.27;100.00
27334;BME280;14817;57.104;-2.094;2023-05-22T03:43:00;101142.88;;;10.18;100.00
27334;BME280;14817;57.104;-2.094;2023-05-22T03:45:27;101136.38;;;10.20;100.00
27334;BME280;14817;57.104;-2.094;2023-05-22T03:47:54;101145.97;;;10.23;100.00
27334;BME280;14817;57.104;-2.094;2023-05-22T03:50:22;101143.72;;;10.28;100.00
27334;BME280;14817;57.104;-2.094;2023-05-22T03:52:49;101150.19;;;10.26;100.00
27334;BME280;14817;57.104;-2.094;2023-05-22T03:55:16;101151.00;;;10.37;100.00
27334;BME280;14817;57.104;-2.094;2023-05-22T03:57:43;101147.78;;;10.44;100.00
27334;BME280;14817;57.104;-2.094;2023-05-22T04:00:10;101150.59;;;10.52;100.00
27334;BME280;14817;57.104;-2.094;2023-05-22T04:02:40;101159.34;;;10.54;100.00
27334;BME280;14817;57.104;-2.094;2023-05-22T04:05:11;101160.34;;;10.53;100.00
27334;BME280;14817;57.104;-2.094;2023-05-22T04:07:38;101147.66;;;10.65;100.00
27334;BME280;14817;57.104;-2.094;2023-05-22T04:10:05;101159.09;;;10.57;100.00
27334;BME280;14817;57.104;-2.094;2023-05-22T04:12:32;101157.13;;;10.59;100.00
27334;BME280;14817;57.104;-2.094;2023-05-22T04:14:59;101163.72;;;10.55;100.00
27334;BME280;14817;57.104;-2.094;2023-05-22T04:17:31;101154.31;;;10.60;100.00
27334;BME280;14817;57.104;-2.094;2023-05-22T04:19:59;101155.81;;;10.53;100.00
27334;BME280;14817;57.104;-2.094;2023-05-22T04:22:26;101159.34;;;10.54;100.00
27334;BME280;14817;57.104;-2.094;2023-05-22T04:24:53;101159.78;;;10.59;100.00
27334;BME280;14817;57.104;-2.094;2023-05-22T04:27:20;101165.69;;;10.53;100.00
27334;BME280;14817;57.104;-2.094;2023-05-22T04:29:48;101167.72;;;10.60;100.00
27334;BME280;14817;57.104;-2.094;2023-05-22T04:32:17;101166.88;;;10.70;100.00
27334;BME280;14817;57.104;-2.094;2023-05-22T04:34:48;101169.97;;;10.65;100.00
27334;BME280;14817;57.104;-2.094;2023-05-22T04:37:17;101163.91;;;10.63;100.00
27334;BME280;14817;57.104;-2.094;2023-05-22T04:39:47;101163.91;;;10.73;100.00
27334;BME280;14817;57.104;-2.094;2023-05-22T04:42:14;101170.50;;;10.59;100.00
27334;BME280;14817;57.104;-2.094;2023-05-22T04:44:41;101183.78;;;10.70;100.00
27334;BME280;14817;57.104;-2.094;2023-05-22T04:47:10;101179.13;;;10.72;100.00
27334;BME280;14817;57.104;-2.094;2023-05-22T04:49:37;101173.06;;;10.70;100.00
27334;BME280;14817;57.104;-2.094;2023-05-22T04:52:05;101176.19;;;10.75;100.00
27334;BME280;14817;57.104;-2.094;2023-05-22T04:54:33;101182.13;;;10.79;100.00
27334;BME280;14817;57.104;-2.094;2023-05-22T04:57:00;101177.31;;;10.73;100.00
27334;BME280;14817;57.104;-2.094;2023-05-22T04:59:30;101179.31;;;10.80;100.00
27334;BME280;14817;57.104;-2.094;2023-05-22T05:01:58;101182.34;;;10.56;100.00
27334;BME280;14817;57.104;-2.094;2023-05-22T05:04:28;101184.63;;;10.71;100.00
27334;BME280;14817;57.104;-2.094;2023-05-22T05:06:55;101177.88;;;10.76;100.00
27334;BME280;14817;57.104;-2.094;2023-05-22T05:09:23;101175.78;;;10.80;100.00
27334;BME280;14817;57.104;-2.094;2023-05-22T05:11:51;101180.88;;;10.93;100.00
27334;BME280;14817;57.104;-2.094;2023-05-22T05:14:18;101184.13;;;10.96;100.00
27334;BME280;14817;57.104;-2.094;2023-05-22T05:16:45;101178.75;;;10.96;100.00
27334;BME280;14817;57.104;-2.094;2023-05-22T05:19:12;101188.38;;;11.09;100.00
27334;BME280;14817;57.104;-2.094;2023-05-22T05:21:41;101188.53;;;11.17;100.00
27334;BME280;14817;57.104;-2.094;2023-05-22T05:24:08;101185.97;;;11.15;100.00
27334;BME280;14817;57.104;-2.094;2023-05-22T05:26:35;101184.16;;;11.26;100.00
27334;BME280;14817;57.104;-2.094;2023-05-22T05:29:02;101185.69;;;11.28;100.00
27334;BME280;14817;57.104;-2.094;2023-05-22T05:31:36;101182.59;;;11.33;100.00
27334;BME280;14817;57.104;-2.094;2023-05-22T05:34:22;101189.50;;;11.26;100.00
27334;BME280;14817;57.104;-2.094;2023-05-22T05:37:01;101193.19;;;11.24;100.00
27334;BME280;14817;57.104;-2.094;2023-05-22T05:39:29;101192.63;;;11.21;100.00
27334;BME280;14817;57.104;-2.094;2023-05-22T05:41:58;101192.19;;;11.26;100.00
27334;BME280;14817;57.104;-2.094;2023-05-22T05:44:26;101199.94;;;11.29;100.00
27334;BME280;14817;57.104;-2.094;2023-05-22T05:46:53;101199.66;;;11.22;100.00
27334;BME280;14817;57.104;-2.094;2023-05-22T05:49:21;101202.63;;;11.09;100.00
27334;BME280;14817;57.104;-2.094;2023-05-22T05:51:48;101202.19;;;11.04;100.00
27334;BME280;14817;57.104;-2.094;2023-05-22T05:54:16;101196.81;;;10.85;100.00
27334;BME280;14817;57.104;-2.094;2023-05-22T05:56:44;101212.75;;;10.86;100.00
27334;BME280;14817;57.104;-2.094;2023-05-22T05:59:12;101204.00;;;10.94;100.00
27334;BME280;14817;57.104;-2.094;2023-05-22T06:02:08;101196.41;;;10.99;100.00
27334;BME280;14817;57.104;-2.094;2023-05-22T06:04:35;101194.00;;;10.86;100.00
27334;BME280;14817;57.104;-2.094;2023-05-22T06:07:03;101194.13;;;10.94;100.00
27334;BME280;14817;57.104;-2.094;2023-05-22T06:09:37;101194.16;;;11.04;100.00
27334;BME280;14817;57.104;-2.094;2023-05-22T06:12:23;101203.28;;;10.92;100.00
27334;BME280;14817;57.104;-2.094;2023-05-22T06:14:50;101209.25;;;10.95;100.00
27334;BME280;14817;57.104;-2.094;2023-05-22T06:17:16;101214.59;;;11.05;100.00
27334;BME280;14817;57.104;-2.094;2023-05-22T06:19:44;101211.81;;;11.16;100.00
27334;BME280;14817;57.104;-2.094;2023-05-22T06:22:12;101221.13;;;11.12;100.00
27334;BME280;14817;57.104;-2.094;2023-05-22T06:24:41;101223.09;;;11.10;100.00
27334;BME280;14817;57.104;-2.094;2023-05-22T06:27:12;101215.38;;;11.46;100.00
27334;BME280;14817;57.104;-2.094;2023-05-22T06:29:40;101223.41;;;11.46;100.00
27334;BME280;14817;57.104;-2.094;2023-05-22T06:32:07;101235.53;;;11.60;100.00
27334;BME280;14817;57.104;-2.094;2023-05-22T06:34:36;101233.00;;;11.68;100.00
27334;BME280;14817;57.104;-2.094;2023-05-22T06:37:04;101241.75;;;11.51;100.00
27334;BME280;14817;57.104;-2.094;2023-05-22T06:39:37;101238.50;;;11.47;100.00
27334;BME280;14817;57.104;-2.094;2023-05-22T06:42:24;101244.56;;;11.30;100.00
27334;BME280;14817;57.104;-2.094;2023-05-22T06:45:12;101249.22;;;11.28;100.00
27334;BME280;14817;57.104;-2.094;2023-05-22T06:47:52;101250.59;;;11.12;100.00
27334;BME280;14817;57.104;-2.094;2023-05-22T06:50:20;101241.16;;;11.18;100.00
27334;BME280;14817;57.104;-2.094;2023-05-22T06:52:47;101255.81;;;11.04;100.00
27334;BME280;14817;57.104;-2.094;2023-05-22T06:55:16;101251.03;;;11.08;100.00
27334;BME280;14817;57.104;-2.094;2023-05-22T06:57:56;101254.69;;;11.07;100.00
27334;BME280;14817;57.104;-2.094;2023-05-22T07:00:24;101251.19;;;11.26;100.00
27334;BME280;14817;57.104;-2.094;2023-05-22T07:03:02;101248.94;;;11.31;100.00
27334;BME280;14817;57.104;-2.094;2023-05-22T07:05:38;101256.25;;;11.19;100.00
27334;BME280;14817;57.104;-2.094;2023-05-22T07:08:05;101254.59;;;11.28;100.00
27334;BME280;14817;57.104;-2.094;2023-05-22T07:10:33;101257.56;;;11.54;100.00
27334;BME280;14817;57.104;-2.094;2023-05-22T07:13:00;101251.38;;;11.63;100.00
27334;BME280;14817;57.104;-2.094;2023-05-22T07:15:29;101256.16;;;11.59;100.00
27334;BME280;14817;57.104;-2.094;2023-05-22T07:17:58;101269.13;;;11.44;100.00
27334;BME280;14817;57.104;-2.094;2023-05-22T07:20:25;101269.44;;;11.80;100.00
27334;BME280;14817;57.104;-2.094;2023-05-22T07:23:12;101264.47;;;11.56;100.00
27334;BME280;14817;57.104;-2.094;2023-05-22T07:25:39;101271.41;;;11.49;100.00
27334;BME280;14817;57.104;-2.094;2023-05-22T07:28:07;101271.13;;;11.72;100.00
27334;BME280;14817;57.104;-2.094;2023-05-22T07:30:44;101271.97;;;11.62;100.00
27334;BME280;14817;57.104;-2.094;2023-05-22T07:33:10;101269.00;;;11.75;100.00
27334;BME280;14817;57.104;-2.094;2023-05-22T07:35:38;101276.22;;;11.94;100.00
27334;BME280;14817;57.104;-2.094;2023-05-22T07:38:06;101275.94;;;11.68;100.00
27334;BME280;14817;57.104;-2.094;2023-05-22T07:40:34;101289.50;;;11.96;100.00
27334;BME280;14817;57.104;-2.094;2023-05-22T07:43:01;101296.84;;;12.23;100.00
27334;BME280;14817;57.104;-2.094;2023-05-22T07:45:29;101317.06;;;12.74;100.00
27334;BME280;14817;57.104;-2.094;2023-05-22T07:47:59;101316.16;;;12.46;100.00
27334;BME280;14817;57.104;-2.094;2023-05-22T07:50:29;101319.56;;;12.38;100.00
27334;BME280;14817;57.104;-2.094;2023-05-22T07:52:58;101327.91;;;12.25;100.00
27334;BME280;14817;57.104;-2.094;2023-05-22T07:55:26;101337.47;;;12.57;100.00
27334;BME280;14817;57.104;-2.094;2023-05-22T07:57:53;101336.38;;;12.31;100.00
27334;BME280;14817;57.104;-2.094;2023-05-22T08:00:28;101333.25;;;12.35;100.00
27334;BME280;14817;57.104;-2.094;2023-05-22T08:02:55;101344.06;;;12.82;100.00
27334;BME280;14817;57.104;-2.094;2023-05-22T08:05:22;101352.13;;;12.82;100.00
27334;BME280;14817;57.104;-2.094;2023-05-22T08:07:49;101351.88;;;12.56;100.00
27334;BME280;14817;57.104;-2.094;2023-05-22T08:10:17;101344.25;;;12.52;100.00
27334;BME280;14817;57.104;-2.094;2023-05-22T08:12:44;101352.22;;;12.34;100.00
27334;BME280;14817;57.104;-2.094;2023-05-22T08:15:11;101358.13;;;12.57;100.00
27334;BME280;14817;57.104;-2.094;2023-05-22T08:17:38;101362.41;;;13.24;100.00
27334;BME280;14817;57.104;-2.094;2023-05-22T08:20:05;101365.84;;;13.17;100.00
27334;BME280;14817;57.104;-2.094;2023-05-22T08:22:33;101374.38;;;13.12;100.00
27334;BME280;14817;57.104;-2.094;2023-05-22T08:25:02;101377.44;;;13.17;100.00
27334;BME280;14817;57.104;-2.094;2023-05-22T08:27:29;101377.25;;;13.38;100.00
27334;BME280;14817;57.104;-2.094;2023-05-22T08:29:56;101391.28;;;13.32;100.00
27334;BME280;14817;57.104;-2.094;2023-05-22T08:32:23;101387.38;;;12.60;100.00
27334;BME280;14817;57.104;-2.094;2023-05-22T08:34:50;101382.59;;;12.63;100.00
27334;BME280;14817;57.104;-2.094;2023-05-22T08:37:17;101395.00;;;12.74;100.00
27334;BME280;14817;57.104;-2.094;2023-05-22T08:39:44;101393.19;;;12.45;100.00
27334;BME280;14817;57.104;-2.094;2023-05-22T08:42:11;101400.13;;;12.48;100.00
27334;BME280;14817;57.104;-2.094;2023-05-22T08:44:38;101392.53;;;12.34;100.00
27334;BME280;14817;57.104;-2.094;2023-05-22T08:47:05;101377.69;;;12.10;100.00
27334;BME280;14817;57.104;-2.094;2023-05-22T08:49:37;101382.19;;;12.00;100.00
27334;BME280;14817;57.104;-2.094;2023-05-22T08:52:12;101371.69;;;11.87;100.00
27334;BME280;14817;57.104;-2.094;2023-05-22T08:54:40;101368.34;;;11.95;100.00
27334;BME280;14817;57.104;-2.094;2023-05-22T08:57:09;101369.75;;;12.09;100.00
27334;BME280;14817;57.104;-2.094;2023-05-22T08:59:38;101368.91;;;12.28;100.00
27334;BME280;14817;57.104;-2.094;2023-05-22T09:02:05;101381.34;;;12.38;100.00
27334;BME280;14817;57.104;-2.094;2023-05-22T09:04:33;101377.38;;;12.42;100.00
27334;BME280;14817;57.104;-2.094;2023-05-22T09:07:00;101378.38;;;12.32;100.00
27334;BME280;14817;57.104;-2.094;2023-05-22T09:09:35;101375.63;;;12.71;100.00
27334;BME280;14817;57.104;-2.094;2023-05-22T09:12:07;101385.53;;;12.70;100.00
27334;BME280;14817;57.104;-2.094;2023-05-22T09:14:40;101390.22;;;12.68;100.00
27334;BME280;14817;57.104;-2.094;2023-05-22T09:17:09;101384.25;;;12.74;100.00
27334;BME280;14817;57.104;-2.094;2023-05-22T09:19:43;101391.63;;;12.72;100.00
27334;BME280;14817;57.104;-2.094;2023-05-22T09:22:11;101386.06;;;12.83;100.00
27334;BME280;14817;57.104;-2.094;2023-05-22T09:24:41;101382.66;;;12.81;100.00
27334;BME280;14817;57.104;-2.094;2023-05-22T09:27:10;101384.47;;;12.24;100.00
27334;BME280;14817;57.104;-2.094;2023-05-22T09:29:50;101370.28;;;12.51;100.00
27334;BME280;14817;57.104;-2.094;2023-05-22T09:32:18;101374.25;;;12.57;100.00
27334;BME280;14817;57.104;-2.094;2023-05-22T09:34:45;101378.44;;;12.69;100.00
27334;BME280;14817;57.104;-2.094;2023-05-22T09:37:13;101379.31;;;12.70;100.00
27334;BME280;14817;57.104;-2.094;2023-05-22T09:39:45;101384.41;;;12.63;100.00
27334;BME280;14817;57.104;-2.094;2023-05-22T09:42:16;101382.72;;;12.52;100.00
27334;BME280;14817;57.104;-2.094;2023-05-22T09:44:50;101384.84;;;12.68;100.00
27334;BME280;14817;57.104;-2.094;2023-05-22T09:47:17;101390.34;;;12.76;100.00
27334;BME280;14817;57.104;-2.094;2023-05-22T09:49:44;101384.06;;;12.95;100.00
27334;BME280;14817;57.104;-2.094;2023-05-22T09:52:11;101381.13;;;12.79;100.00
27334;BME280;14817;57.104;-2.094;2023-05-22T09:54:45;101376.78;;;13.05;100.00
27334;BME280;14817;57.104;-2.094;2023-05-22T09:57:16;101369.97;;;13.11;100.00
27334;BME280;14817;57.104;-2.094;2023-05-22T09:59:49;101374.63;;;13.19;100.00
27334;BME280;14817;57.104;-2.094;2023-05-22T10:02:24;101365.69;;;13.18;100.00
27334;BME280;14817;57.104;-2.094;2023-05-22T10:04:52;101368.94;;;13.32;100.00
27334;BME280;14817;57.104;-2.094;2023-05-22T10:07:21;101362.16;;;13.18;100.00
27334;BME280;14817;57.104;-2.094;2023-05-22T10:09:56;101356.94;;;13.44;100.00
27334;BME280;14817;57.104;-2.094;2023-05-22T10:12:25;101354.16;;;13.81;100.00
27334;BME280;14817;57.104;-2.094;2023-05-22T10:14:54;101358.22;;;14.21;100.00
27334;BME280;14817;57.104;-2.094;2023-05-22T10:17:22;101352.63;;;13.97;100.00
27334;BME280;14817;57.104;-2.094;2023-05-22T10:19:50;101356.69;;;14.19;100.00
27334;BME280;14817;57.104;-2.094;2023-05-22T10:22:19;101356.56;;;14.64;100.00
27334;BME280;14817;57.104;-2.094;2023-05-22T10:24:48;101372.34;;;15.11;100.00
27334;BME280;14817;57.104;-2.094;2023-05-22T10:27:16;101372.66;;;15.43;100.00
27334;BME280;14817;57.104;-2.094;2023-05-22T10:29:50;101371.66;;;15.09;100.00
27334;BME280;14817;57.104;-2.094;2023-05-22T10:41:15;101441.31;;;15.75;100.00
27334;BME280;14817;57.104;-2.094;2023-05-22T10:43:42;101439.00;;;15.62;100.00
27334;BME280;14817;57.104;-2.094;2023-05-22T10:46:11;101430.31;;;15.42;100.00
27334;BME280;14817;57.104;-2.094;2023-05-22T10:48:41;101437.41;;;15.08;100.00
27334;BME280;14817;57.104;-2.094;2023-05-22T10:51:14;101431.16;;;15.08;100.00
27334;BME280;14817;57.104;-2.094;2023-05-22T10:53:43;101433.97;;;14.98;100.00
27334;BME280;14817;57.104;-2.094;2023-05-22T10:56:15;101450.75;;;15.79;100.00
27334;BME280;14817;57.104;-2.094;2023-05-22T10:58:46;101442.34;;;15.13;100.00
27334;BME280;14817;57.104;-2.094;2023-05-22T11:01:24;101437.34;;;15.00;100.00
27334;BME280;14817;57.104;-2.094;2023-05-22T11:03:59;101435.22;;;14.60;100.00
27334;BME280;14817;57.104;-2.094;2023-05-22T11:06:40;101439.13;;;14.65;100.00
27334;BME280;14817;57.104;-2.094;2023-05-22T11:12:24;101447.63;;;14.97;100.00
27334;BME280;14817;57.104;-2.094;2023-05-22T11:17:26;101429.22;;;14.66;100.00
27334;BME280;14817;57.104;-2.094;2023-05-22T11:20:11;101449.84;;;14.57;100.00
27334;BME280;14817;57.104;-2.094;2023-05-22T11:22:43;101440.44;;;14.25;100.00
27334;BME280;14817;57.104;-2.094;2023-05-22T11:25:14;101452.91;;;14.08;100.00
27334;BME280;14817;57.104;-2.094;2023-05-22T11:27:43;101445.75;;;14.17;100.00
27334;BME280;14817;57.104;-2.094;2023-05-22T11:30:10;101461.53;;;14.30;100.00
27334;BME280;14817;57.104;-2.094;2023-05-22T11:32:39;101461.28;;;14.41;100.00
27334;BME280;14817;57.104;-2.094;2023-05-22T11:35:07;101462.66;;;14.09;100.00
27334;BME280;14817;57.104;-2.094;2023-05-22T11:37:38;101457.03;;;13.85;100.00
27334;BME280;14817;57.104;-2.094;2023-05-22T11:40:05;101444.22;;;14.15;100.00
27334;BME280;14817;57.104;-2.094;2023-05-22T11:42:34;101444.63;;;14.56;100.00
27334;BME280;14817;57.104;-2.094;2023-05-22T11:45:01;101445.53;;;14.90;100.00
27334;BME280;14817;57.104;-2.094;2023-05-22T11:47:29;101445.63;;;15.33;100.00
27334;BME280;14817;57.104;-2.094;2023-05-22T11:49:56;101456.44;;;15.07;100.00
27334;BME280;14817;57.104;-2.094;2023-05-22T11:52:24;101458.59;;;15.29;100.00
27334;BME280;14817;57.104;-2.094;2023-05-22T11:54:51;101464.56;;;15.41;100.00
27334;BME280;14817;57.104;-2.094;2023-05-22T11:57:19;101458.94;;;15.00;100.00
27334;BME280;14817;57.104;-2.094;2023-05-22T11:59:46;101463.19;;;14.85;100.00
27334;BME280;14817;57.104;-2.094;2023-05-22T12:02:17;101458.69;;;15.46;100.00
27334;BME280;14817;57.104;-2.094;2023-05-22T12:04:45;101460.78;;;15.60;100.00
27334;BME280;14817;57.104;-2.094;2023-05-22T12:07:12;101470.41;;;16.05;100.00
27334;BME280;14817;57.104;-2.094;2023-05-22T12:09:41;101461.72;;;15.77;100.00
27334;BME280;14817;57.104;-2.094;2023-05-22T12:12:08;101456.16;;;15.87;100.00
27334;BME280;14817;57.104;-2.094;2023-05-22T12:14:37;101457.63;;;16.48;100.00
27334;BME280;14817;57.104;-2.094;2023-05-22T12:17:04;101454.09;;;16.48;100.00
27334;BME280;14817;57.104;-2.094;2023-05-22T12:19:32;101461.00;;;16.42;100.00
27334;BME280;14817;57.104;-2.094;2023-05-22T12:21:58;101472.63;;;16.10;100.00
27334;BME280;14817;57.104;-2.094;2023-05-22T12:24:36;101485.66;;;15.72;100.00
27334;BME280;14817;57.104;-2.094;2023-05-22T12:27:07;101492.16;;;15.61;100.00
27334;BME280;14817;57.104;-2.094;2023-05-22T12:29:34;101499.09;;;15.90;100.00
27334;BME280;14817;57.104;-2.094;2023-05-22T12:32:02;101491.41;;;16.36;100.00
27334;BME280;14817;57.104;-2.094;2023-05-22T12:34:33;101502.72;;;16.31;100.00
27334;BME280;14817;57.104;-2.094;2023-05-22T12:37:00;101513.19;;;15.76;100.00
27334;BME280;14817;57.104;-2.094;2023-05-22T12:39:27;101505.78;;;15.25;100.00
27334;BME280;14817;57.104;-2.094;2023-05-22T12:41:55;101509.97;;;15.72;100.00
27334;BME280;14817;57.104;-2.094;2023-05-22T12:44:22;101500.63;;;16.01;100.00
27334;BME280;14817;57.104;-2.094;2023-05-22T12:46:50;101496.75;;;16.03;100.00
27334;BME280;14817;57.104;-2.094;2023-05-22T12:49:17;101496.34;;;16.49;100.00
27334;BME280;14817;57.104;-2.094;2023-05-22T12:51:44;101496.16;;;16.50;100.00
27334;BME280;14817;57.104;-2.094;2023-05-22T12:54:11;101491.78;;;16.58;100.00
27334;BME280;14817;57.104;-2.094;2023-05-22T12:56:40;101493.50;;;16.83;100.00
27334;BME280;14817;57.104;-2.094;2023-05-22T12:59:07;101489.19;;;16.23;100.00
27334;BME280;14817;57.104;-2.094;2023-05-22T13:01:34;101488.41;;;16.64;100.00
27334;BME280;14817;57.104;-2.094;2023-05-22T13:04:01;101477.91;;;16.36;100.00
27334;BME280;14817;57.104;-2.094;2023-05-22T13:06:27;101491.25;;;16.38;100.00